Time,TemperatureF,DewpointF,PressureIn,WindDirection,WindDirectionDegrees,WindSpeedMPH,WindSpeedGustMPH,Humidity,HourlyPrecipIn,Conditions,Clouds,dailyrainin,SoftwareType,DateUTC
2013-02-03 00:01:00,35.6,33.5,30.26,SE,138,0.0,0.0,92,0.00,,SKC,0.00,VWS V13.01,2013-02-03 08:01:00,
2013-02-03 00:11:00,35.8,33.7,30.26,SE,137,0.0,0.0,92,0.00,,SKC,0.00,VWS V13.01,2013-02-03 08:11:00,
2013-02-03 00:21:00,36.0,34.2,30.25,ESE,121,0.0,0.0,93,0.00,,SKC,0.00,VWS V13.01,2013-02-03 08:21:00,
2013-02-03 00:31:00,36.2,34.4,30.27,ESE,121,0.0,0.0,93,0.00,,SKC,0.00,VWS V13.01,2013-02-03 08:31:00,
2013-02-03 00:41:00,36.3,34.5,30.27,SE,126,0.0,0.0,93,0.00,,SKC,0.00,VWS V13.01,2013-02-03 08:41:00,
2013-02-03 00:51:00,36.6,34.8,30.25,SE,127,0.0,0.0,93,0.00,,SKC,0.00,VWS V13.01,2013-02-03 08:51:00,
2013-02-03 01:01:00,36.9,35.1,30.24,SE,136,0.0,0.0,93,0.00,,SKC,0.00,VWS V13.01,2013-02-03 09:01:00,
2013-02-03 01:11:00,36.9,35.1,30.24,SE,136,0.0,0.0,93,0.00,,SKC,0.00,VWS V13.01,2013-02-03 09:11:00,
2013-02-03 01:21:00,37.6,35.8,30.25,ESE,117,0.0,0.0,93,0.00,,SKC,0.00,VWS V13.01,2013-02-03 09:21:00,
2013-02-03 01:31:00,38.0,36.2,30.24,SE,127,0.0,0.0,93,0.00,,SKC,0.00,VWS V13.01,2013-02-03 09:31:00,
2013-02-03 01:41:00,38.3,36.5,30.24,ESE,122,0.0,0.0,93,0.00,,SKC,0.00,VWS V13.01,2013-02-03 09:41:00,
2013-02-03 01:51:00,38.3,36.5,30.24,ESE,122,0.0,0.0,93,0.00,,SKC,0.00,VWS V13.01,2013-02-03 09:51:00,
2013-02-03 02:01:00,38.6,36.8,30.25,East,99,0.0,0.0,93,0.00,,SKC,0.00,VWS V13.01,2013-02-03 10:01:00,
2013-02-03 02:11:00,38.9,37.0,30.25,ESE,102,0.0,0.0,93,0.00,,SKC,0.00,VWS V13.01,2013-02-03 10:11:00,
2013-02-03 02:21:00,39.1,37.2,30.25,ESE,103,0.0,0.0,93,0.00,,SKC,0.00,VWS V13.01,2013-02-03 10:21:00,
2013-02-03 02:31:00,39.2,37.3,30.24,ESE,115,0.0,0.0,93,0.00,,SKC,0.00,VWS V13.01,2013-02-03 10:31:00,
2013-02-03 02:41:00,39.2,37.3,30.24,ESE,119,0.0,0.0,93,0.00,,SKC,0.00,VWS V13.01,2013-02-03 10:41:00,
2013-02-03 02:51:00,39.5,37.7,30.24,ESE,116,0.0,0.0,93,0.00,,SKC,0.00,VWS V13.01,2013-02-03 10:51:00,
2013-02-03 03:01:00,39.5,37.7,30.22,ESE,120,0.0,0.0,93,0.00,,SKC,0.00,VWS V13.01,2013-02-03 11:01:00,
2013-02-03 03:11:00,39.6,37.8,30.22,East,80,0.0,0.0,93,0.00,,SKC,0.00,VWS V13.01,2013-02-03 11:11:00,
2013-02-03 03:21:00,39.6,37.8,30.23,East,80,0.0,0.0,93,0.00,,SKC,0.00,VWS V13.01,2013-02-03 11:21:00,
2013-02-03 03:31:00,39.6,37.8,30.22,East,80,0.0,0.0,93,0.00,,SKC,0.00,VWS V13.01,2013-02-03 11:31:00,
2013-02-03 03:41:00,39.5,37.7,30.22,East,80,0.0,0.0,93,0.00,,SKC,0.00,VWS V13.01,2013-02-03 11:41:00,
2013-02-03 03:51:00,39.5,37.7,30.22,East,80,0.0,0.0,93,0.00,,SKC,0.00,VWS V13.01,2013-02-03 11:51:00,
2013-02-03 04:01:00,39.5,37.7,30.22,East,80,0.0,0.0,93,0.00,,SKC,0.00,VWS V13.01,2013-02-03 12:01:00,
2013-02-03 04:11:00,39.5,37.7,30.22,East,82,0.0,0.0,93,0.00,,SKC,0.00,VWS V13.01,2013-02-03 12:11:00,
2013-02-03 04:21:00,39.3,37.5,30.22,East,82,0.0,0.0,93,0.00,,SKC,0.00,VWS V13.01,2013-02-03 12:21:00,
2013-02-03 04:31:00,39.2,37.3,30.23,East,82,0.0,0.0,93,0.00,,SKC,0.00,VWS V13.01,2013-02-03 12:31:00,
2013-02-03 04:41:00,39.2,37.3,30.23,East,82,0.0,0.0,93,0.00,,SKC,0.00,VWS V13.01,2013-02-03 12:41:00,
2013-02-03 04:51:00,39.2,37.3,30.24,East,82,0.0,0.0,93,0.00,,SKC,0.00,VWS V13.01,2013-02-03 12:51:00,
2013-02-03 05:01:00,39.3,37.5,30.24,East,82,0.0,0.0,93,0.00,,SKC,0.00,VWS V13.01,2013-02-03 13:01:00,
2013-02-03 05:11:00,39.3,37.5,30.24,East,82,0.0,0.0,93,0.00,,SKC,0.00,VWS V13.01,2013-02-03 13:11:00,
2013-02-03 05:21:00,39.2,37.3,30.25,East,82,0.0,0.0,93,0.00,,SKC,0.00,VWS V13.01,2013-02-03 13:21:00,
2013-02-03 05:31:00,39.1,37.2,30.25,East,82,0.0,0.0,93,0.00,,SKC,0.00,VWS V13.01,2013-02-03 13:31:00,
2013-02-03 05:41:00,38.9,37.0,30.25,East,82,0.0,0.0,93,0.00,,SKC,0.00,VWS V13.01,2013-02-03 13:41:00,
2013-02-03 05:51:00,38.8,37.0,30.26,East,82,0.0,0.0,93,0.00,,SKC,0.00,VWS V13.01,2013-02-03 13:51:00,
2013-02-03 06:01:00,38.6,36.8,30.27,SE,125,0.0,0.0,93,0.01,,SKC,0.01,VWS V13.01,2013-02-03 14:01:00,
2013-02-03 06:11:00,38.6,36.8,30.27,East,88,0.0,0.0,93,0.01,,SKC,0.01,VWS V13.01,2013-02-03 14:11:00,
2013-02-03 06:21:00,38.5,36.7,30.27,East,92,0.0,0.0,93,0.01,,SKC,0.01,VWS V13.01,2013-02-03 14:21:00,
2013-02-03 06:31:00,38.5,36.7,30.27,ESE,103,0.0,0.0,93,0.01,,SKC,0.01,VWS V13.01,2013-02-03 14:31:00,
2013-02-03 06:41:00,38.6,36.8,30.27,ESE,120,0.0,0.0,93,0.01,,SKC,0.01,VWS V13.01,2013-02-03 14:41:00,
2013-02-03 06:51:00,38.5,36.7,30.27,SE,129,0.0,0.0,93,0.01,,SKC,0.01,VWS V13.01,2013-02-03 14:51:00,
2013-02-03 07:01:00,38.5,36.7,30.27,SE,129,0.0,0.0,93,0.01,,SKC,0.01,VWS V13.01,2013-02-03 15:01:00,
2013-02-03 07:11:00,38.2,36.4,30.27,SE,141,0.0,0.0,93,0.00,,SKC,0.01,VWS V13.01,2013-02-03 15:11:00,
2013-02-03 07:21:00,38.0,36.2,30.26,ESE,122,0.0,0.0,93,0.00,,SKC,0.01,VWS V13.01,2013-02-03 15:21:00,
2013-02-03 07:31:00,38.0,36.2,30.25,ESE,120,0.0,0.0,93,0.00,,SKC,0.01,VWS V13.01,2013-02-03 15:31:00,
2013-02-03 07:41:00,37.9,36.1,30.25,SE,136,0.0,0.0,93,0.00,,SKC,0.01,VWS V13.01,2013-02-03 15:41:00,
2013-02-03 07:51:00,37.9,36.1,30.25,East,100,0.0,0.0,93,0.00,,SKC,0.01,VWS V13.01,2013-02-03 15:51:00,
2013-02-03 08:01:00,38.0,36.2,30.25,NE,53,0.0,0.0,93,0.00,,SKC,0.01,VWS V13.01,2013-02-03 16:01:00,
2013-02-03 08:11:00,38.2,36.4,30.25,ESE,110,0.0,0.0,93,0.00,,SKC,0.01,VWS V13.01,2013-02-03 16:11:00,
2013-02-03 08:21:00,38.3,36.5,30.27,ESE,116,0.0,0.0,93,0.00,,SKC,0.01,VWS V13.01,2013-02-03 16:21:00,
2013-02-03 08:31:00,38.5,36.7,30.27,SE,124,0.0,0.0,93,0.00,,SKC,0.01,VWS V13.01,2013-02-03 16:31:00,
2013-02-03 08:41:00,38.8,37.0,30.27,ESE,117,0.0,0.0,93,0.00,,SKC,0.01,VWS V13.01,2013-02-03 16:41:00,
2013-02-03 08:51:00,38.9,37.0,30.27,ESE,123,0.0,0.0,93,0.00,,SKC,0.01,VWS V13.01,2013-02-03 16:51:00,
2013-02-03 09:01:00,39.2,37.1,30.27,SE,125,0.0,0.0,92,0.00,,SKC,0.01,VWS V13.01,2013-02-03 17:01:00,
2013-02-03 09:11:00,39.3,37.2,30.27,ESE,110,0.0,0.0,92,0.00,,SKC,0.01,VWS V13.01,2013-02-03 17:11:00,
2013-02-03 09:21:00,39.6,37.5,30.27,ESE,122,0.0,0.0,92,0.00,,SKC,0.01,VWS V13.01,2013-02-03 17:21:00,
2013-02-03 09:31:00,39.8,37.7,30.27,ESE,110,0.0,0.0,92,0.00,,SKC,0.01,VWS V13.01,2013-02-03 17:31:00,
2013-02-03 09:41:00,40.2,38.1,30.27,SE,137,0.0,0.0,92,0.00,,SKC,0.01,VWS V13.01,2013-02-03 17:41:00,
2013-02-03 09:51:00,40.5,38.1,30.27,SSE,153,0.0,0.0,91,0.00,,SKC,0.01,VWS V13.01,2013-02-03 17:51:00,
2013-02-03 10:01:00,40.9,38.5,30.27,SE,127,0.0,0.0,91,0.00,,SKC,0.01,VWS V13.01,2013-02-03 18:01:00,
2013-02-03 10:11:00,41.1,38.7,30.27,ESE,118,0.0,0.0,91,0.00,,SKC,0.01,VWS V13.01,2013-02-03 18:11:00,
2013-02-03 10:21:00,41.3,38.6,30.27,SE,142,0.0,0.0,90,0.00,,SKC,0.01,VWS V13.01,2013-02-03 18:21:00,
2013-02-03 10:31:00,41.6,38.9,30.28,SSE,152,0.0,0.0,90,0.00,,SKC,0.01,VWS V13.01,2013-02-03 18:31:00,
2013-02-03 10:41:00,41.9,38.9,30.28,SE,139,0.0,0.0,89,0.00,,SKC,0.01,VWS V13.01,2013-02-03 18:41:00,
2013-02-03 10:51:00,42.2,39.2,30.28,SE,125,0.0,0.0,89,0.00,,SKC,0.01,VWS V13.01,2013-02-03 18:51:00,
2013-02-03 11:01:00,42.5,39.2,30.28,SE,127,0.0,0.0,88,0.00,,SKC,0.01,VWS V13.01,2013-02-03 19:01:00,
2013-02-03 11:11:00,42.8,39.2,30.28,South,176,0.0,0.0,87,0.00,,SKC,0.01,VWS V13.01,2013-02-03 19:11:00,
2013-02-03 11:21:00,42.9,39.3,30.28,SE,129,0.0,0.0,87,0.00,,SKC,0.01,VWS V13.01,2013-02-03 19:21:00,
2013-02-03 11:31:00,43.2,39.3,30.28,SE,146,0.0,0.0,86,0.00,,SKC,0.01,VWS V13.01,2013-02-03 19:31:00,
2013-02-03 11:41:00,43.6,39.7,30.28,SE,138,0.0,0.0,86,0.00,,SKC,0.01,VWS V13.01,2013-02-03 19:41:00,
2013-02-03 11:51:00,43.9,39.7,30.27,SE,146,0.0,0.0,85,0.00,,SKC,0.01,VWS V13.01,2013-02-03 19:51:00,
2013-02-03 12:01:00,44.3,40.1,30.26,SE,146,0.0,0.0,85,0.00,,SKC,0.01,VWS V13.01,2013-02-03 20:01:00,
2013-02-03 12:11:00,44.9,40.7,30.26,SE,129,0.0,0.0,85,0.00,,SKC,0.01,VWS V13.01,2013-02-03 20:11:00,
2013-02-03 12:21:00,45.2,41.0,30.25,SE,142,0.0,0.0,85,0.00,,SKC,0.01,VWS V13.01,2013-02-03 20:21:00,
2013-02-03 12:31:00,45.5,41.3,30.25,SE,142,0.0,0.0,85,0.00,,SKC,0.01,VWS V13.01,2013-02-03 20:31:00,
2013-02-03 12:41:00,45.8,41.5,30.25,SE,142,0.0,0.0,85,0.00,,SKC,0.01,VWS V13.01,2013-02-03 20:41:00,
2013-02-03 12:51:00,46.4,42.1,30.23,South,169,0.0,0.0,85,0.00,,SKC,0.01,VWS V13.01,2013-02-03 20:51:00,
2013-02-03 13:01:00,46.7,42.4,30.22,South,169,0.0,0.0,85,0.00,,SKC,0.01,VWS V13.01,2013-02-03 21:01:00,
2013-02-03 13:11:00,46.8,42.2,30.22,SSW,211,0.0,0.0,84,0.00,,SKC,0.01,VWS V13.01,2013-02-03 21:11:00,
2013-02-03 13:21:00,47.0,42.1,30.22,WSW,251,0.0,0.0,83,0.00,,SKC,0.01,VWS V13.01,2013-02-03 21:21:00,
2013-02-03 13:31:00,47.3,42.4,30.21,WSW,238,0.0,0.0,83,0.00,,SKC,0.01,VWS V13.01,2013-02-03 21:31:00,
2013-02-03 13:41:00,47.3,42.1,30.21,WSW,253,0.0,0.0,82,0.00,,SKC,0.01,VWS V13.01,2013-02-03 21:41:00,
2013-02-03 13:51:00,47.4,42.2,30.20,WSW,257,0.0,0.0,82,0.00,,SKC,0.01,VWS V13.01,2013-02-03 21:51:00,
2013-02-03 14:01:00,47.6,42.1,30.20,SW,235,0.0,0.0,81,0.00,,SKC,0.01,VWS V13.01,2013-02-03 22:01:00,
2013-02-03 14:11:00,47.6,42.1,30.20,WSW,252,0.0,0.0,81,0.00,,SKC,0.01,VWS V13.01,2013-02-03 22:11:00,
2013-02-03 14:21:00,47.7,42.2,30.19,West,271,0.0,0.0,81,0.00,,SKC,0.01,VWS V13.01,2013-02-03 22:21:00,
2013-02-03 14:31:00,47.9,42.0,30.20,NW,304,0.0,0.0,80,0.00,,SKC,0.01,VWS V13.01,2013-02-03 22:31:00,
2013-02-03 14:41:00,48.0,42.1,30.20,WSW,241,0.0,0.0,80,0.00,,SKC,0.01,VWS V13.01,2013-02-03 22:41:00,
2013-02-03 14:51:00,47.9,42.0,30.20,WNW,291,0.0,0.0,80,0.00,,SKC,0.01,VWS V13.01,2013-02-03 22:51:00,
2013-02-03 15:01:00,47.7,41.5,30.20,WNW,302,0.0,0.0,79,0.00,,SKC,0.01,VWS V13.01,2013-02-03 23:01:00,
2013-02-03 15:11:00,47.7,41.5,30.20,WNW,300,0.0,0.0,79,0.00,,SKC,0.01,VWS V13.01,2013-02-03 23:11:00,
2013-02-03 15:21:00,47.7,41.5,30.20,NW,308,0.0,0.0,79,0.00,,SKC,0.01,VWS V13.01,2013-02-03 23:21:00,
2013-02-03 15:31:00,48.0,42.1,30.20,NNW,337,0.0,0.0,80,0.00,,SKC,0.01,VWS V13.01,2013-02-03 23:31:00,
2013-02-03 15:41:00,48.0,41.8,30.20,WNW,295,0.0,0.0,79,0.00,,SKC,0.01,VWS V13.01,2013-02-03 23:41:00,
2013-02-03 15:51:00,47.9,41.7,30.20,NW,319,0.0,0.0,79,0.00,,SKC,0.01,VWS V13.01,2013-02-03 23:51:00,
2013-02-03 16:01:00,47.9,41.7,30.20,NW,307,0.0,0.0,79,0.00,,SKC,0.01,VWS V13.01,2013-02-04 00:01:00,
2013-02-03 16:11:00,47.7,41.8,30.20,NW,318,0.0,0.0,80,0.00,,SKC,0.01,VWS V13.01,2013-02-04 00:11:00,
2013-02-03 16:21:00,47.6,41.8,30.20,WNW,301,0.0,0.0,80,0.00,,SKC,0.01,VWS V13.01,2013-02-04 00:21:00,
2013-02-03 16:31:00,47.4,41.9,30.20,WNW,297,0.0,0.0,81,0.00,,SKC,0.01,VWS V13.01,2013-02-04 00:31:00,
2013-02-03 16:41:00,47.3,41.8,30.20,West,281,0.0,0.0,81,0.00,,SKC,0.01,VWS V13.01,2013-02-04 00:41:00,
2013-02-03 16:51:00,47.1,41.6,30.21,WNW,297,0.0,0.0,81,0.00,,SKC,0.01,VWS V13.01,2013-02-04 00:51:00,
2013-02-03 17:01:00,47.0,41.8,30.21,NW,314,0.0,0.0,82,0.00,,SKC,0.01,VWS V13.01,2013-02-04 01:01:00,
2013-02-03 17:11:00,46.8,41.6,30.21,NW,317,0.0,0.0,82,0.00,,SKC,0.01,VWS V13.01,2013-02-04 01:11:00,
2013-02-03 17:21:00,46.8,41.6,30.21,NNW,329,0.0,0.0,82,0.00,,SKC,0.01,VWS V13.01,2013-02-04 01:21:00,
2013-02-03 17:31:00,46.7,41.5,30.21,NNW,329,0.0,0.0,82,0.00,,SKC,0.01,VWS V13.01,2013-02-04 01:31:00,
2013-02-03 17:41:00,46.5,41.3,30.21,NNW,329,0.0,0.0,82,0.00,,SKC,0.01,VWS V13.01,2013-02-04 01:41:00,
2013-02-03 17:51:00,46.5,41.3,30.20,NNW,329,0.0,0.0,82,0.00,,SKC,0.01,VWS V13.01,2013-02-04 01:51:00,
2013-02-03 18:01:00,46.5,41.3,30.21,NNW,329,0.0,0.0,82,0.00,,SKC,0.01,VWS V13.01,2013-02-04 02:01:00,
2013-02-03 18:11:00,46.5,41.6,30.21,NNW,329,0.0,0.0,83,0.00,,SKC,0.01,VWS V13.01,2013-02-04 02:11:00,
2013-02-03 18:21:00,46.4,41.5,30.20,NNW,329,0.0,0.0,83,0.00,,SKC,0.01,VWS V13.01,2013-02-04 02:21:00,
2013-02-03 18:31:00,46.2,41.3,30.20,NNW,329,0.0,0.0,83,0.00,,SKC,0.01,VWS V13.01,2013-02-04 02:31:00,
2013-02-03 18:41:00,46.2,41.6,30.20,NNW,329,0.0,0.0,84,0.00,,SKC,0.01,VWS V13.01,2013-02-04 02:41:00,
2013-02-03 18:51:00,46.1,41.5,30.20,NNW,329,0.0,0.0,84,0.00,,SKC,0.01,VWS V13.01,2013-02-04 02:51:00,
2013-02-03 19:01:00,46.1,41.5,30.20,NNW,329,0.0,0.0,84,0.00,,SKC,0.01,VWS V13.01,2013-02-04 03:01:00,
2013-02-03 19:11:00,46.0,41.4,30.20,NNW,329,0.0,0.0,84,0.00,,SKC,0.01,VWS V13.01,2013-02-04 03:11:00,
2013-02-03 19:21:00,46.0,41.4,30.20,NNW,329,0.0,0.0,84,0.00,,SKC,0.01,VWS V13.01,2013-02-04 03:21:00,
2013-02-03 19:31:00,45.8,41.2,30.20,NNW,329,0.0,0.0,84,0.00,,SKC,0.01,VWS V13.01,2013-02-04 03:31:00,
2013-02-03 19:41:00,45.8,41.5,30.20,NNW,329,0.0,0.0,85,0.00,,SKC,0.01,VWS V13.01,2013-02-04 03:41:00,
2013-02-03 19:51:00,45.7,41.5,30.20,NNW,329,0.0,0.0,85,0.00,,SKC,0.01,VWS V13.01,2013-02-04 03:51:00,
2013-02-03 20:01:00,45.5,41.3,30.20,NNW,329,0.0,0.0,85,0.00,,SKC,0.01,VWS V13.01,2013-02-04 04:01:00,
2013-02-03 20:11:00,45.4,41.2,30.20,NNW,329,0.0,0.0,85,0.00,,SKC,0.01,VWS V13.01,2013-02-04 04:11:00,
2013-02-03 20:21:00,45.2,41.3,30.19,NNW,329,0.0,0.0,86,0.00,,SKC,0.01,VWS V13.01,2013-02-04 04:21:00,
2013-02-03 20:31:00,45.1,41.2,30.19,NNW,329,0.0,0.0,86,0.00,,SKC,0.01,VWS V13.01,2013-02-04 04:31:00,
2013-02-03 20:41:00,45.1,41.2,30.19,NNW,329,0.0,0.0,86,0.00,,SKC,0.01,VWS V13.01,2013-02-04 04:41:00,
2013-02-03 20:51:00,44.9,41.0,30.18,NNW,329,0.0,0.0,86,0.00,,SKC,0.01,VWS V13.01,2013-02-04 04:51:00,
2013-02-03 21:01:00,44.8,41.2,30.19,NNW,329,0.0,0.0,87,0.00,,SKC,0.01,VWS V13.01,2013-02-04 05:01:00,
2013-02-03 21:11:00,44.8,41.2,30.19,NNW,329,0.0,0.0,87,0.00,,SKC,0.01,VWS V13.01,2013-02-04 05:11:00,
2013-02-03 21:21:00,44.6,41.0,30.19,NNW,329,0.0,0.0,87,0.00,,SKC,0.01,VWS V13.01,2013-02-04 05:21:00,
2013-02-03 21:31:00,44.6,41.0,30.18,NNW,329,0.0,0.0,87,0.00,,SKC,0.01,VWS V13.01,2013-02-04 05:31:00,
2013-02-03 21:41:00,44.6,41.0,30.18,NNW,329,0.0,0.0,87,0.00,,SKC,0.01,VWS V13.01,2013-02-04 05:41:00,
2013-02-03 21:51:00,44.6,41.3,30.19,NNW,329,0.0,0.0,88,0.00,,SKC,0.01,VWS V13.01,2013-02-04 05:51:00,
2013-02-03 22:01:00,44.6,41.3,30.19,NNW,329,0.0,0.0,88,0.00,,SKC,0.01,VWS V13.01,2013-02-04 06:01:00,
2013-02-03 22:11:00,44.6,41.3,30.19,NNW,329,0.0,0.0,88,0.00,,SKC,0.01,VWS V13.01,2013-02-04 06:11:00,
2013-02-03 22:21:00,44.6,41.3,30.19,NNW,329,0.0,0.0,88,0.00,,SKC,0.01,VWS V13.01,2013-02-04 06:21:00,
2013-02-03 22:31:00,44.6,41.3,30.19,NNW,329,0.0,0.0,88,0.00,,SKC,0.01,VWS V13.01,2013-02-04 06:31:00,
2013-02-03 22:41:00,44.5,41.2,30.19,NNW,329,0.0,0.0,88,0.00,,SKC,0.01,VWS V13.01,2013-02-04 06:41:00,
2013-02-03 22:51:00,44.5,41.2,30.19,NNW,329,0.0,0.0,88,0.00,,SKC,0.01,VWS V13.01,2013-02-04 06:51:00,
2013-02-03 23:01:00,44.3,41.0,30.19,NNW,329,0.0,0.0,88,0.00,,SKC,0.01,VWS V13.01,2013-02-04 07:01:00,
2013-02-03 23:11:00,44.2,41.2,30.19,NNW,329,0.0,0.0,89,0.00,,SKC,0.01,VWS V13.01,2013-02-04 07:11:00,
2013-02-03 23:21:00,44.2,41.2,30.18,NNW,329,0.0,0.0,89,0.00,,SKC,0.01,VWS V13.01,2013-02-04 07:21:00,
2013-02-03 23:31:00,44.2,41.2,30.19,NNW,329,0.0,0.0,89,0.00,,SKC,0.01,VWS V13.01,2013-02-04 07:31:00,
2013-02-03 23:41:00,44.1,41.1,30.19,NNW,329,0.0,0.0,89,0.00,,SKC,0.01,VWS V13.01,2013-02-04 07:41:00,
2013-02-03 23:51:00,44.1,41.1,30.18,NNW,329,0.0,0.0,89,0.00,,SKC,0.01,VWS V13.01,2013-02-04 07:51:00,